sensor_id;sensor_type;location;lat;lon;timestamp;P1;durP1;ratioP1;P2;durP2;ratioP2
11823;SDS011;5969;50.780;7.726;2022-10-31T00:00:09;13.50;;;5.32;;
11823;SDS011;5969;50.780;7.726;2022-10-31T00:02:36;9.98;;;5.78;;
11823;SDS011;5969;50.780;7.726;2022-10-31T00:05:05;12.00;;;5.88;;
11823;SDS011;5969;50.780;7.726;2022-10-31T00:07:32;10.05;;;5.13;;
11823;SDS011;5969;50.780;7.726;2022-10-31T00:09:59;9.98;;;5.30;;
11823;SDS011;5969;50.780;7.726;2022-10-31T00:12:25;13.23;;;5.43;;
11823;SDS011;5969;50.780;7.726;2022-10-31T00:14:52;9.70;;;5.40;;
11823;SDS011;5969;50.780;7.726;2022-10-31T00:17:19;13.43;;;4.95;;
11823;SDS011;5969;50.780;7.726;2022-10-31T00:19:46;10.88;;;5.75;;
11823;SDS011;5969;50.780;7.726;2022-10-31T00:22:14;9.32;;;5.85;;
11823;SDS011;5969;50.780;7.726;2022-10-31T00:24:41;9.63;;;5.70;;
11823;SDS011;5969;50.780;7.726;2022-10-31T00:27:08;9.48;;;5.55;;
11823;SDS011;5969;50.780;7.726;2022-10-31T00:29:34;8.40;;;5.63;;
11823;SDS011;5969;50.780;7.726;2022-10-31T00:32:01;15.77;;;6.45;;
11823;SDS011;5969;50.780;7.726;2022-10-31T00:34:28;8.95;;;5.70;;
11823;SDS011;5969;50.780;7.726;2022-10-31T00:36:55;12.00;;;6.22;;
11823;SDS011;5969;50.780;7.726;2022-10-31T00:39:23;10.85;;;6.53;;
11823;SDS011;5969;50.780;7.726;2022-10-31T00:41:50;13.82;;;6.22;;
11823;SDS011;5969;50.780;7.726;2022-10-31T00:44:16;13.00;;;6.20;;
11823;SDS011;5969;50.780;7.726;2022-10-31T00:46:43;9.18;;;5.93;;
11823;SDS011;5969;50.780;7.726;2022-10-31T00:49:10;10.38;;;5.88;;
11823;SDS011;5969;50.780;7.726;2022-10-31T00:51:37;10.55;;;6.15;;
11823;SDS011;5969;50.780;7.726;2022-10-31T00:54:04;12.60;;;5.53;;
11823;SDS011;5969;50.780;7.726;2022-10-31T00:56:32;10.55;;;5.68;;
11823;SDS011;5969;50.780;7.726;2022-10-31T00:58:59;9.65;;;6.03;;
11823;SDS011;5969;50.780;7.726;2022-10-31T01:01:25;9.02;;;5.88;;
11823;SDS011;5969;50.780;7.726;2022-10-31T01:03:52;12.35;;;6.25;;
11823;SDS011;5969;50.780;7.726;2022-10-31T01:06:19;10.68;;;5.88;;
11823;SDS011;5969;50.780;7.726;2022-10-31T01:08:46;9.65;;;6.03;;
11823;SDS011;5969;50.780;7.726;2022-10-31T01:11:14;10.75;;;7.28;;
11823;SDS011;5969;50.780;7.726;2022-10-31T01:13:43;12.13;;;7.22;;
11823;SDS011;5969;50.780;7.726;2022-10-31T01:16:11;20.33;;;7.45;;
11823;SDS011;5969;50.780;7.726;2022-10-31T01:18:39;11.23;;;7.38;;
11823;SDS011;5969;50.780;7.726;2022-10-31T01:21:07;10.10;;;7.50;;
11823;SDS011;5969;50.780;7.726;2022-10-31T01:23:35;16.17;;;7.25;;
11823;SDS011;5969;50.780;7.726;2022-10-31T01:26:03;13.15;;;7.07;;
11823;SDS011;5969;50.780;7.726;2022-10-31T01:28:32;10.43;;;6.63;;
11823;SDS011;5969;50.780;7.726;2022-10-31T01:31:04;13.77;;;6.85;;
11823;SDS011;5969;50.780;7.726;2022-10-31T01:33:32;11.30;;;6.82;;
11823;SDS011;5969;50.780;7.726;2022-10-31T01:36:00;14.93;;;7.38;;
11823;SDS011;5969;50.780;7.726;2022-10-31T01:38:27;15.95;;;7.30;;
11823;SDS011;5969;50.780;7.726;2022-10-31T01:40:54;12.70;;;7.40;;
11823;SDS011;5969;50.780;7.726;2022-10-31T01:43:21;12.27;;;7.80;;
11823;SDS011;5969;50.780;7.726;2022-10-31T01:45:50;11.07;;;7.22;;
11823;SDS011;5969;50.780;7.726;2022-10-31T01:48:20;8.55;;;6.90;;
11823;SDS011;5969;50.780;7.726;2022-10-31T01:50:52;12.52;;;6.40;;
11823;SDS011;5969;50.780;7.726;2022-10-31T01:53:21;12.82;;;7.38;;
11823;SDS011;5969;50.780;7.726;2022-10-31T01:55:49;10.07;;;7.03;;
11823;SDS011;5969;50.780;7.726;2022-10-31T01:58:17;11.13;;;6.97;;
11823;SDS011;5969;50.780;7.726;2022-10-31T02:00:47;12.60;;;6.97;;
11823;SDS011;5969;50.780;7.726;2022-10-31T02:03:17;10.05;;;7.20;;
11823;SDS011;5969;50.780;7.726;2022-10-31T02:05:47;12.68;;;7.00;;
11823;SDS011;5969;50.780;7.726;2022-10-31T02:08:16;11.48;;;7.05;;
11823;SDS011;5969;50.780;7.726;2022-10-31T02:10:47;10.45;;;6.50;;
11823;SDS011;5969;50.780;7.726;2022-10-31T02:13:14;12.10;;;7.20;;
11823;SDS011;5969;50.780;7.726;2022-10-31T02:15:42;11.02;;;6.22;;
11823;SDS011;5969;50.780;7.726;2022-10-31T02:18:11;14.15;;;7.18;;
11823;SDS011;5969;50.780;7.726;2022-10-31T02:20:41;12.20;;;6.57;;
11823;SDS011;5969;50.780;7.726;2022-10-31T02:26:38;10.50;;;4.97;;
11823;SDS011;5969;50.780;7.726;2022-10-31T02:29:36;11.25;;;6.45;;
11823;SDS011;5969;50.780;7.726;2022-10-31T02:32:24;14.68;;;6.13;;
11823;SDS011;5969;50.780;7.726;2022-10-31T02:34:57;9.20;;;5.90;;
11823;SDS011;5969;50.780;7.726;2022-10-31T02:37:29;10.07;;;5.80;;
11823;SDS011;5969;50.780;7.726;2022-10-31T02:40:05;8.55;;;5.45;;
11823;SDS011;5969;50.780;7.726;2022-10-31T02:42:40;13.25;;;5.38;;
11823;SDS011;5969;50.780;7.726;2022-10-31T02:45:14;9.13;;;5.20;;
11823;SDS011;5969;50.780;7.726;2022-10-31T02:47:49;12.65;;;5.57;;
11823;SDS011;5969;50.780;7.726;2022-10-31T02:50:19;10.38;;;5.53;;
11823;SDS011;5969;50.780;7.726;2022-10-31T02:52:50;9.98;;;5.28;;
11823;SDS011;5969;50.780;7.726;2022-10-31T02:58:15;11.65;;;7.20;;
11823;SDS011;5969;50.780;7.726;2022-10-31T03:00:49;11.50;;;7.35;;
11823;SDS011;5969;50.780;7.726;2022-10-31T03:03:35;9.73;;;6.15;;
11823;SDS011;5969;50.780;7.726;2022-10-31T03:06:12;12.35;;;6.93;;
11823;SDS011;5969;50.780;7.726;2022-10-31T03:08:45;11.40;;;7.53;;
11823;SDS011;5969;50.780;7.726;2022-10-31T03:11:20;13.35;;;6.82;;
11823;SDS011;5969;50.780;7.726;2022-10-31T03:13:54;9.75;;;6.28;;
11823;SDS011;5969;50.780;7.726;2022-10-31T03:16:27;14.38;;;6.45;;
11823;SDS011;5969;50.780;7.726;2022-10-31T03:19:02;13.07;;;6.10;;
11823;SDS011;5969;50.780;7.726;2022-10-31T03:21:33;9.95;;;5.00;;
11823;SDS011;5969;50.780;7.726;2022-10-31T03:24:03;8.48;;;5.43;;
11823;SDS011;5969;50.780;7.726;2022-10-31T03:26:33;11.63;;;5.53;;
11823;SDS011;5969;50.780;7.726;2022-10-31T03:29:03;11.30;;;5.55;;
11823;SDS011;5969;50.780;7.726;2022-10-31T03:31:33;6.80;;;5.40;;
11823;SDS011;5969;50.780;7.726;2022-10-31T03:34:06;11.38;;;5.55;;
11823;SDS011;5969;50.780;7.726;2022-10-31T03:36:35;9.65;;;4.78;;
11823;SDS011;5969;50.780;7.726;2022-10-31T03:39:04;10.30;;;5.30;;
11823;SDS011;5969;50.780;7.726;2022-10-31T03:41:35;9.32;;;5.30;;
11823;SDS011;5969;50.780;7.726;2022-10-31T03:44:07;10.85;;;5.10;;
11823;SDS011;5969;50.780;7.726;2022-10-31T03:46:37;10.65;;;5.28;;
11823;SDS011;5969;50.780;7.726;2022-10-31T03:49:06;5.45;;;4.55;;
11823;SDS011;5969;50.780;7.726;2022-10-31T03:51:34;11.60;;;5.75;;
11823;SDS011;5969;50.780;7.726;2022-10-31T03:54:07;8.55;;;5.43;;
11823;SDS011;5969;50.780;7.726;2022-10-31T03:56:40;11.68;;;5.47;;
11823;SDS011;5969;50.780;7.726;2022-10-31T03:59:13;10.98;;;5.60;;
11823;SDS011;5969;50.780;7.726;2022-10-31T04:01:44;9.13;;;5.57;;
11823;SDS011;5969;50.780;7.726;2022-10-31T04:04:16;10.20;;;5.45;;
11823;SDS011;5969;50.780;7.726;2022-10-31T04:06:45;13.63;;;5.93;;
11823;SDS011;5969;50.780;7.726;2022-10-31T04:09:13;11.68;;;5.90;;
11823;SDS011;5969;50.780;7.726;2022-10-31T04:11:43;11.15;;;5.60;;
11823;SDS011;5969;50.780;7.726;2022-10-31T04:14:15;9.27;;;5.65;;
11823;SDS011;5969;50.780;7.726;2022-10-31T04:16:42;11.48;;;5.85;;
11823;SDS011;5969;50.780;7.726;2022-10-31T04:19:10;12.43;;;5.35;;
11823;SDS011;5969;50.780;7.726;2022-10-31T04:21:39;9.23;;;6.03;;
11823;SDS011;5969;50.780;7.726;2022-10-31T04:24:08;11.85;;;6.20;;
11823;SDS011;5969;50.780;7.726;2022-10-31T04:26:35;12.07;;;6.00;;
11823;SDS011;5969;50.780;7.726;2022-10-31T04:29:02;10.75;;;6.72;;
11823;SDS011;5969;50.780;7.726;2022-10-31T04:31:29;9.48;;;6.10;;
11823;SDS011;5969;50.780;7.726;2022-10-31T04:33:55;11.30;;;5.68;;
11823;SDS011;5969;50.780;7.726;2022-10-31T04:36:22;8.23;;;5.25;;
11823;SDS011;5969;50.780;7.726;2022-10-31T04:38:50;9.52;;;6.15;;
11823;SDS011;5969;50.780;7.726;2022-10-31T04:41:17;11.90;;;5.43;;
11823;SDS011;5969;50.780;7.726;2022-10-31T04:43:44;11.88;;;5.85;;
11823;SDS011;5969;50.780;7.726;2022-10-31T04:46:11;6.88;;;5.25;;
11823;SDS011;5969;50.780;7.726;2022-10-31T04:48:37;11.18;;;5.93;;
11823;SDS011;5969;50.780;7.726;2022-10-31T04:51:04;17.77;;;6.68;;
11823;SDS011;5969;50.780;7.726;2022-10-31T04:53:31;11.55;;;7.20;;
11823;SDS011;5969;50.780;7.726;2022-10-31T04:55:59;11.70;;;6.07;;
11823;SDS011;5969;50.780;7.726;2022-10-31T04:58:26;9.40;;;5.30;;
11823;SDS011;5969;50.780;7.726;2022-10-31T05:00:53;8.15;;;4.90;;
11823;SDS011;5969;50.780;7.726;2022-10-31T05:03:20;8.65;;;5.82;;
11823;SDS011;5969;50.780;7.726;2022-10-31T05:05:47;7.65;;;4.88;;
11823;SDS011;5969;50.780;7.726;2022-10-31T05:08:14;13.35;;;5.72;;
11823;SDS011;5969;50.780;7.726;2022-10-31T05:10:41;9.85;;;6.28;;
11823;SDS011;5969;50.780;7.726;2022-10-31T05:13:09;12.57;;;6.00;;
11823;SDS011;5969;50.780;7.726;2022-10-31T05:15:36;8.98;;;6.13;;
11823;SDS011;5969;50.780;7.726;2022-10-31T05:18:03;7.97;;;5.22;;
11823;SDS011;5969;50.780;7.726;2022-10-31T05:20:30;9.25;;;4.90;;
11823;SDS011;5969;50.780;7.726;2022-10-31T05:22:57;6.32;;;4.57;;
11823;SDS011;5969;50.780;7.726;2022-10-31T05:25:26;7.55;;;4.90;;
11823;SDS011;5969;50.780;7.726;2022-10-31T05:27:55;10.85;;;5.55;;
11823;SDS011;5969;50.780;7.726;2022-10-31T05:30:24;10.15;;;5.25;;
11823;SDS011;5969;50.780;7.726;2022-10-31T05:32:52;8.73;;;4.90;;
11823;SDS011;5969;50.780;7.726;2022-10-31T05:35:21;9.25;;;5.72;;
11823;SDS011;5969;50.780;7.726;2022-10-31T05:37:50;9.85;;;5.75;;
11823;SDS011;5969;50.780;7.726;2022-10-31T05:40:17;12.77;;;6.68;;
11823;SDS011;5969;50.780;7.726;2022-10-31T05:42:45;8.02;;;6.30;;
11823;SDS011;5969;50.780;7.726;2022-10-31T05:45:13;6.85;;;5.80;;
11823;SDS011;5969;50.780;7.726;2022-10-31T05:47:49;10.50;;;6.10;;
11823;SDS011;5969;50.780;7.726;2022-10-31T05:50:16;10.05;;;5.00;;
11823;SDS011;5969;50.780;7.726;2022-10-31T05:52:43;7.90;;;4.88;;
11823;SDS011;5969;50.780;7.726;2022-10-31T05:55:10;9.15;;;5.03;;
11823;SDS011;5969;50.780;7.726;2022-10-31T05:57:37;13.32;;;5.13;;
11823;SDS011;5969;50.780;7.726;2022-10-31T06:00:04;7.65;;;5.55;;
11823;SDS011;5969;50.780;7.726;2022-10-31T06:02:32;10.70;;;5.68;;
11823;SDS011;5969;50.780;7.726;2022-10-31T06:05:01;12.43;;;6.32;;
11823;SDS011;5969;50.780;7.726;2022-10-31T06:07:31;13.48;;;5.95;;
11823;SDS011;5969;50.780;7.726;2022-10-31T06:09:59;11.63;;;5.93;;
11823;SDS011;5969;50.780;7.726;2022-10-31T06:12:26;10.35;;;6.05;;
11823;SDS011;5969;50.780;7.726;2022-10-31T06:14:53;11.25;;;6.72;;
11823;SDS011;5969;50.780;7.726;2022-10-31T06:17:19;10.55;;;6.50;;
11823;SDS011;5969;50.780;7.726;2022-10-31T06:19:46;11.13;;;6.45;;
11823;SDS011;5969;50.780;7.726;2022-10-31T06:22:14;8.23;;;5.85;;
11823;SDS011;5969;50.780;7.726;2022-10-31T06:24:41;8.82;;;5.70;;
11823;SDS011;5969;50.780;7.726;2022-10-31T06:27:08;7.38;;;5.13;;
11823;SDS011;5969;50.780;7.726;2022-10-31T06:29:35;8.70;;;5.57;;
11823;SDS011;5969;50.780;7.726;2022-10-31T06:32:02;8.60;;;5.95;;
11823;SDS011;5969;50.780;7.726;2022-10-31T06:34:29;10.38;;;6.28;;
11823;SDS011;5969;50.780;7.726;2022-10-31T06:36:55;9.15;;;6.10;;
11823;SDS011;5969;50.780;7.726;2022-10-31T06:39:23;12.10;;;6.82;;
11823;SDS011;5969;50.780;7.726;2022-10-31T06:41:50;12.52;;;5.95;;
11823;SDS011;5969;50.780;7.726;2022-10-31T06:44:17;7.55;;;5.32;;
11823;SDS011;5969;50.780;7.726;2022-10-31T06:46:45;9.43;;;5.20;;
11823;SDS011;5969;50.780;7.726;2022-10-31T06:49:12;9.65;;;5.68;;
11823;SDS011;5969;50.780;7.726;2022-10-31T06:51:39;11.82;;;5.95;;
11823;SDS011;5969;50.780;7.726;2022-10-31T06:54:06;13.02;;;6.07;;
11823;SDS011;5969;50.780;7.726;2022-10-31T06:56:34;9.85;;;4.93;;
11823;SDS011;5969;50.780;7.726;2022-10-31T06:59:01;8.73;;;5.20;;
11823;SDS011;5969;50.780;7.726;2022-10-31T07:01:27;10.15;;;4.82;;
11823;SDS011;5969;50.780;7.726;2022-10-31T07:03:54;10.43;;;5.60;;
11823;SDS011;5969;50.780;7.726;2022-10-31T07:06:21;8.20;;;5.80;;
11823;SDS011;5969;50.780;7.726;2022-10-31T07:08:48;12.60;;;6.28;;
11823;SDS011;5969;50.780;7.726;2022-10-31T07:11:15;11.25;;;6.63;;
11823;SDS011;5969;50.780;7.726;2022-10-31T07:13:43;10.38;;;6.45;;
11823;SDS011;5969;50.780;7.726;2022-10-31T07:16:10;9.48;;;6.00;;
11823;SDS011;5969;50.780;7.726;2022-10-31T07:18:38;11.68;;;7.28;;
11823;SDS011;5969;50.780;7.726;2022-10-31T07:21:05;13.80;;;6.25;;
11823;SDS011;5969;50.780;7.726;2022-10-31T07:23:32;13.20;;;6.80;;
11823;SDS011;5969;50.780;7.726;2022-10-31T07:25:59;12.57;;;6.43;;
11823;SDS011;5969;50.780;7.726;2022-10-31T07:28:26;11.85;;;6.32;;
11823;SDS011;5969;50.780;7.726;2022-10-31T07:30:55;10.27;;;6.35;;
11823;SDS011;5969;50.780;7.726;2022-10-31T07:33:23;11.68;;;6.60;;
11823;SDS011;5969;50.780;7.726;2022-10-31T07:35:51;10.15;;;6.20;;
11823;SDS011;5969;50.780;7.726;2022-10-31T07:38:18;12.82;;;6.43;;
11823;SDS011;5969;50.780;7.726;2022-10-31T07:40:49;14.05;;;6.28;;
11823;SDS011;5969;50.780;7.726;2022-10-31T07:43:16;10.13;;;6.20;;
11823;SDS011;5969;50.780;7.726;2022-10-31T07:45:43;14.68;;;6.40;;
11823;SDS011;5969;50.780;7.726;2022-10-31T07:48:16;8.07;;;6.28;;
11823;SDS011;5969;50.780;7.726;2022-10-31T07:50:42;9.90;;;5.97;;
11823;SDS011;5969;50.780;7.726;2022-10-31T07:53:10;12.88;;;6.05;;
11823;SDS011;5969;50.780;7.726;2022-10-31T07:55:38;9.55;;;5.80;;
11823;SDS011;5969;50.780;7.726;2022-10-31T07:58:06;12.88;;;6.47;;
11823;SDS011;5969;50.780;7.726;2022-10-31T08:00:34;12.75;;;6.10;;
11823;SDS011;5969;50.780;7.726;2022-10-31T08:03:02;10.40;;;6.70;;
11823;SDS011;5969;50.780;7.726;2022-10-31T08:05:32;10.63;;;5.93;;
11823;SDS011;5969;50.780;7.726;2022-10-31T08:07:59;9.60;;;5.45;;
11823;SDS011;5969;50.780;7.726;2022-10-31T08:10:27;9.85;;;6.20;;
11823;SDS011;5969;50.780;7.726;2022-10-31T08:12:54;7.82;;;5.82;;
11823;SDS011;5969;50.780;7.726;2022-10-31T08:15:22;8.82;;;6.35;;
11823;SDS011;5969;50.780;7.726;2022-10-31T08:17:50;10.07;;;5.85;;
11823;SDS011;5969;50.780;7.726;2022-10-31T08:20:17;10.75;;;6.40;;
11823;SDS011;5969;50.780;7.726;2022-10-31T08:22:53;12.80;;;6.95;;
11823;SDS011;5969;50.780;7.726;2022-10-31T08:25:20;9.20;;;6.30;;
11823;SDS011;5969;50.780;7.726;2022-10-31T08:27:48;11.32;;;6.28;;
11823;SDS011;5969;50.780;7.726;2022-10-31T08:30:16;9.45;;;6.57;;
11823;SDS011;5969;50.780;7.726;2022-10-31T08:32:43;11.15;;;6.75;;
11823;SDS011;5969;50.780;7.726;2022-10-31T08:35:10;8.63;;;6.40;;
11823;SDS011;5969;50.780;7.726;2022-10-31T08:37:37;11.55;;;6.45;;
11823;SDS011;5969;50.780;7.726;2022-10-31T08:40:06;9.57;;;6.30;;
11823;SDS011;5969;50.780;7.726;2022-10-31T08:42:33;9.00;;;6.40;;
11823;SDS011;5969;50.780;7.726;2022-10-31T08:45:00;13.55;;;6.55;;
11823;SDS011;5969;50.780;7.726;2022-10-31T08:47:27;9.98;;;6.47;;
11823;SDS011;5969;50.780;7.726;2022-10-31T08:49:54;10.00;;;6.43;;
11823;SDS011;5969;50.780;7.726;2022-10-31T08:52:22;10.88;;;6.47;;
11823;SDS011;5969;50.780;7.726;2022-10-31T08:54:50;12.07;;;6.57;;
11823;SDS011;5969;50.780;7.726;2022-10-31T08:57:18;11.02;;;6.32;;
11823;SDS011;5969;50.780;7.726;2022-10-31T08:59:45;10.82;;;6.00;;
11823;SDS011;5969;50.780;7.726;2022-10-31T09:02:12;9.93;;;6.05;;
11823;SDS011;5969;50.780;7.726;2022-10-31T09:04:39;11.25;;;6.75;;
11823;SDS011;5969;50.780;7.726;2022-10-31T09:07:06;16.52;;;6.72;;
11823;SDS011;5969;50.780;7.726;2022-10-31T09:09:33;11.35;;;6.53;;
11823;SDS011;5969;50.780;7.726;2022-10-31T09:12:00;10.10;;;6.65;;
11823;SDS011;5969;50.780;7.726;2022-10-31T09:14:28;12.32;;;6.88;;
11823;SDS011;5969;50.780;7.726;2022-10-31T09:16:55;10.30;;;6.18;;
11823;SDS011;5969;50.780;7.726;2022-10-31T09:19:21;8.02;;;6.38;;
11823;SDS011;5969;50.780;7.726;2022-10-31T09:21:51;7.35;;;5.85;;
11823;SDS011;5969;50.780;7.726;2022-10-31T09:24:19;11.35;;;5.93;;
11823;SDS011;5969;50.780;7.726;2022-10-31T09:26:46;8.18;;;6.03;;
11823;SDS011;5969;50.780;7.726;2022-10-31T09:29:12;12.07;;;6.38;;
11823;SDS011;5969;50.780;7.726;2022-10-31T09:31:43;10.80;;;6.38;;
11823;SDS011;5969;50.780;7.726;2022-10-31T09:34:10;8.75;;;6.25;;
11823;SDS011;5969;50.780;7.726;2022-10-31T09:36:37;13.13;;;6.05;;
11823;SDS011;5969;50.780;7.726;2022-10-31T09:39:04;8.13;;;6.30;;
11823;SDS011;5969;50.780;7.726;2022-10-31T09:41:35;10.75;;;6.28;;
11823;SDS011;5969;50.780;7.726;2022-10-31T09:44:26;12.32;;;6.03;;
11823;SDS011;5969;50.780;7.726;2022-10-31T09:47:02;10.15;;;5.65;;
11823;SDS011;5969;50.780;7.726;2022-10-31T09:49:38;9.85;;;5.68;;
11823;SDS011;5969;50.780;7.726;2022-10-31T09:52:20;10.43;;;5.68;;
11823;SDS011;5969;50.780;7.726;2022-10-31T09:54:51;11.15;;;6.00;;
11823;SDS011;5969;50.780;7.726;2022-10-31T09:57:22;9.18;;;5.80;;
11823;SDS011;5969;50.780;7.726;2022-10-31T09:59:51;11.30;;;5.55;;
11823;SDS011;5969;50.780;7.726;2022-10-31T10:02:21;11.77;;;5.55;;
11823;SDS011;5969;50.780;7.726;2022-10-31T10:04:54;8.40;;;5.53;;
11823;SDS011;5969;50.780;7.726;2022-10-31T10:07:30;7.57;;;5.28;;
11823;SDS011;5969;50.780;7.726;2022-10-31T10:10:09;12.20;;;5.53;;
11823;SDS011;5969;50.780;7.726;2022-10-31T10:12:43;10.68;;;5.28;;
11823;SDS011;5969;50.780;7.726;2022-10-31T10:15:31;10.82;;;5.80;;
11823;SDS011;5969;50.780;7.726;2022-10-31T10:18:12;10.68;;;5.60;;
11823;SDS011;5969;50.780;7.726;2022-10-31T10:20:51;8.65;;;5.53;;
11823;SDS011;5969;50.780;7.726;2022-10-31T10:23:31;8.55;;;5.45;;
11823;SDS011;5969;50.780;7.726;2022-10-31T10:26:10;7.53;;;5.18;;
11823;SDS011;5969;50.780;7.726;2022-10-31T10:28:41;10.40;;;5.53;;
11823;SDS011;5969;50.780;7.726;2022-10-31T10:31:12;7.15;;;4.88;;
11823;SDS011;5969;50.780;7.726;2022-10-31T10:33:43;11.63;;;5.30;;
11823;SDS011;5969;50.780;7.726;2022-10-31T10:36:17;11.25;;;5.35;;
11823;SDS011;5969;50.780;7.726;2022-10-31T10:38:49;12.63;;;5.47;;
11823;SDS011;5969;50.780;7.726;2022-10-31T10:41:18;10.13;;;4.97;;
11823;SDS011;5969;50.780;7.726;2022-10-31T10:43:48;13.32;;;5.43;;
11823;SDS011;5969;50.780;7.726;2022-10-31T10:46:16;9.55;;;5.53;;
11823;SDS011;5969;50.780;7.726;2022-10-31T10:49:09;7.43;;;5.50;;
11823;SDS011;5969;50.780;7.726;2022-10-31T10:51:50;9.85;;;5.68;;
11823;SDS011;5969;50.780;7.726;2022-10-31T10:54:35;9.88;;;5.10;;
11823;SDS011;5969;50.780;7.726;2022-10-31T10:57:21;8.88;;;4.88;;
11823;SDS011;5969;50.780;7.726;2022-10-31T10:59:57;8.27;;;4.90;;
11823;SDS011;5969;50.780;7.726;2022-10-31T11:02:27;12.35;;;5.20;;
11823;SDS011;5969;50.780;7.726;2022-10-31T11:04:59;12.35;;;5.35;;
11823;SDS011;5969;50.780;7.726;2022-10-31T11:07:37;10.25;;;4.93;;
11823;SDS011;5969;50.780;7.726;2022-10-31T11:10:05;8.63;;;4.75;;
11823;SDS011;5969;50.780;7.726;2022-10-31T11:12:38;7.40;;;5.22;;
11823;SDS011;5969;50.780;7.726;2022-10-31T11:15:07;12.40;;;5.45;;
11823;SDS011;5969;50.780;7.726;2022-10-31T11:17:46;11.18;;;5.72;;
11823;SDS011;5969;50.780;7.726;2022-10-31T11:20:27;12.98;;;5.53;;
11823;SDS011;5969;50.780;7.726;2022-10-31T11:23:01;12.18;;;5.68;;
11823;SDS011;5969;50.780;7.726;2022-10-31T11:25:30;11.57;;;5.50;;
11823;SDS011;5969;50.780;7.726;2022-10-31T11:28:00;9.88;;;5.70;;
11823;SDS011;5969;50.780;7.726;2022-10-31T11:30:27;13.43;;;5.85;;
11823;SDS011;5969;50.780;7.726;2022-10-31T11:32:54;8.50;;;4.75;;
11823;SDS011;5969;50.780;7.726;2022-10-31T11:35:22;11.45;;;5.18;;
11823;SDS011;5969;50.780;7.726;2022-10-31T11:37:53;10.63;;;5.28;;
11823;SDS011;5969;50.780;7.726;2022-10-31T11:40:25;14.23;;;5.30;;
11823;SDS011;5969;50.780;7.726;2022-10-31T11:42:54;9.98;;;5.85;;
11823;SDS011;5969;50.780;7.726;2022-10-31T11:45:28;10.90;;;5.72;;
11823;SDS011;5969;50.780;7.726;2022-10-31T11:47:57;10.82;;;5.05;;
11823;SDS011;5969;50.780;7.726;2022-10-31T11:50:27;12.38;;;5.30;;
11823;SDS011;5969;50.780;7.726;2022-10-31T11:52:59;10.20;;;4.90;;
11823;SDS011;5969;50.780;7.726;2022-10-31T11:55:31;10.98;;;5.60;;
11823;SDS011;5969;50.780;7.726;2022-10-31T11:57:59;20.60;;;5.80;;
11823;SDS011;5969;50.780;7.726;2022-10-31T12:00:28;8.85;;;5.25;;
11823;SDS011;5969;50.780;7.726;2022-10-31T12:03:24;11.85;;;5.40;;
11823;SDS011;5969;50.780;7.726;2022-10-31T12:06:00;13.30;;;5.38;;
11823;SDS011;5969;50.780;7.726;2022-10-31T12:08:34;7.25;;;4.65;;
11823;SDS011;5969;50.780;7.726;2022-10-31T12:11:04;8.60;;;5.68;;
11823;SDS011;5969;50.780;7.726;2022-10-31T12:13:42;8.45;;;4.90;;
11823;SDS011;5969;50.780;7.726;2022-10-31T12:16:17;11.30;;;5.18;;
11823;SDS011;5969;50.780;7.726;2022-10-31T12:18:52;12.23;;;5.10;;
11823;SDS011;5969;50.780;7.726;2022-10-31T12:21:32;12.05;;;4.82;;
11823;SDS011;5969;50.780;7.726;2022-10-31T12:24:12;7.85;;;4.22;;
11823;SDS011;5969;50.780;7.726;2022-10-31T12:26:50;9.27;;;4.07;;
11823;SDS011;5969;50.780;7.726;2022-10-31T12:29:29;8.75;;;3.35;;
11823;SDS011;5969;50.780;7.726;2022-10-31T12:32:15;9.18;;;3.30;;
11823;SDS011;5969;50.780;7.726;2022-10-31T12:34:58;12.13;;;3.83;;
11823;SDS011;5969;50.780;7.726;2022-10-31T12:37:43;9.25;;;3.00;;
11823;SDS011;5969;50.780;7.726;2022-10-31T12:40:24;7.70;;;4.18;;
11823;SDS011;5969;50.780;7.726;2022-10-31T12:43:02;8.20;;;3.85;;
11823;SDS011;5969;50.780;7.726;2022-10-31T12:45:41;7.25;;;3.40;;
11823;SDS011;5969;50.780;7.726;2022-10-31T12:48:18;7.93;;;3.58;;
11823;SDS011;5969;50.780;7.726;2022-10-31T12:51:08;9.45;;;2.90;;
11823;SDS011;5969;50.780;7.726;2022-10-31T12:53:44;9.30;;;3.40;;
11823;SDS011;5969;50.780;7.726;2022-10-31T12:56:24;8.20;;;3.15;;
11823;SDS011;5969;50.780;7.726;2022-10-31T12:59:07;10.23;;;3.53;;
11823;SDS011;5969;50.780;7.726;2022-10-31T13:01:38;10.93;;;3.53;;
11823;SDS011;5969;50.780;7.726;2022-10-31T13:04:14;9.05;;;3.20;;
11823;SDS011;5969;50.780;7.726;2022-10-31T13:06:45;6.10;;;3.35;;
11823;SDS011;5969;50.780;7.726;2022-10-31T13:09:16;8.32;;;3.33;;
11823;SDS011;5969;50.780;7.726;2022-10-31T13:11:48;9.48;;;3.30;;
11823;SDS011;5969;50.780;7.726;2022-10-31T13:14:21;9.07;;;3.42;;
11823;SDS011;5969;50.780;7.726;2022-10-31T13:16:52;9.50;;;3.30;;
11823;SDS011;5969;50.780;7.726;2022-10-31T13:19:22;12.82;;;3.20;;
11823;SDS011;5969;50.780;7.726;2022-10-31T13:21:53;8.90;;;3.25;;
11823;SDS011;5969;50.780;7.726;2022-10-31T13:24:26;8.27;;;2.80;;
11823;SDS011;5969;50.780;7.726;2022-10-31T13:26:59;7.50;;;3.03;;
11823;SDS011;5969;50.780;7.726;2022-10-31T13:29:29;10.20;;;3.25;;
11823;SDS011;5969;50.780;7.726;2022-10-31T13:31:59;10.63;;;3.70;;
11823;SDS011;5969;50.780;7.726;2022-10-31T13:34:30;7.72;;;3.20;;
11823;SDS011;5969;50.780;7.726;2022-10-31T13:37:03;7.68;;;3.10;;
11823;SDS011;5969;50.780;7.726;2022-10-31T13:39:36;7.22;;;3.63;;
11823;SDS011;5969;50.780;7.726;2022-10-31T13:42:16;10.38;;;3.35;;
11823;SDS011;5969;50.780;7.726;2022-10-31T13:44:48;8.77;;;3.20;;
11823;SDS011;5969;50.780;7.726;2022-10-31T13:47:23;12.60;;;3.50;;
11823;SDS011;5969;50.780;7.726;2022-10-31T13:49:51;5.63;;;3.25;;
11823;SDS011;5969;50.780;7.726;2022-10-31T13:52:30;10.13;;;3.42;;
11823;SDS011;5969;50.780;7.726;2022-10-31T13:54:57;9.02;;;3.90;;
11823;SDS011;5969;50.780;7.726;2022-10-31T13:57:27;11.27;;;3.13;;
11823;SDS011;5969;50.780;7.726;2022-10-31T13:59:58;6.93;;;3.00;;
11823;SDS011;5969;50.780;7.726;2022-10-31T14:02:28;6.70;;;3.20;;
11823;SDS011;5969;50.780;7.726;2022-10-31T14:04:58;7.25;;;3.42;;
11823;SDS011;5969;50.780;7.726;2022-10-31T14:07:27;10.93;;;3.53;;
11823;SDS011;5969;50.780;7.726;2022-10-31T14:09:56;7.40;;;3.70;;
11823;SDS011;5969;50.780;7.726;2022-10-31T14:12:28;11.20;;;3.42;;
11823;SDS011;5969;50.780;7.726;2022-10-31T14:14:58;15.07;;;3.60;;
11823;SDS011;5969;50.780;7.726;2022-10-31T14:17:31;6.45;;;3.55;;
11823;SDS011;5969;50.780;7.726;2022-10-31T14:20:21;5.43;;;3.05;;
11823;SDS011;5969;50.780;7.726;2022-10-31T14:22:50;8.18;;;3.22;;
11823;SDS011;5969;50.780;7.726;2022-10-31T14:25:27;4.95;;;3.17;;
11823;SDS011;5969;50.780;7.726;2022-10-31T14:27:57;14.23;;;3.30;;
11823;SDS011;5969;50.780;7.726;2022-10-31T14:30:26;10.52;;;3.17;;
11823;SDS011;5969;50.780;7.726;2022-10-31T14:32:56;7.45;;;3.63;;
11823;SDS011;5969;50.780;7.726;2022-10-31T14:35:28;8.65;;;3.42;;
11823;SDS011;5969;50.780;7.726;2022-10-31T14:41:01;10.93;;;3.47;;
11823;SDS011;5969;50.780;7.726;2022-10-31T14:43:44;6.80;;;3.17;;
11823;SDS011;5969;50.780;7.726;2022-10-31T14:46:40;8.98;;;3.58;;
11823;SDS011;5969;50.780;7.726;2022-10-31T14:49:18;8.13;;;3.20;;
11823;SDS011;5969;50.780;7.726;2022-10-31T14:51:58;8.32;;;3.80;;
11823;SDS011;5969;50.780;7.726;2022-10-31T14:54:25;8.57;;;3.78;;
11823;SDS011;5969;50.780;7.726;2022-10-31T14:56:56;6.80;;;3.55;;
11823;SDS011;5969;50.780;7.726;2022-10-31T14:59:29;8.73;;;3.45;;
11823;SDS011;5969;50.780;7.726;2022-10-31T15:01:59;7.40;;;3.78;;
11823;SDS011;5969;50.780;7.726;2022-10-31T15:04:34;8.05;;;4.28;;
11823;SDS011;5969;50.780;7.726;2022-10-31T15:07:03;9.90;;;3.90;;
11823;SDS011;5969;50.780;7.726;2022-10-31T15:09:33;10.15;;;4.05;;
11823;SDS011;5969;50.780;7.726;2022-10-31T15:12:00;9.75;;;4.40;;
11823;SDS011;5969;50.780;7.726;2022-10-31T15:14:48;7.70;;;3.97;;
11823;SDS011;5969;50.780;7.726;2022-10-31T15:17:15;12.65;;;4.03;;
11823;SDS011;5969;50.780;7.726;2022-10-31T15:19:42;7.70;;;3.60;;
11823;SDS011;5969;50.780;7.726;2022-10-31T15:22:13;11.15;;;3.83;;